Time;durP1;ratioP1;P1;durP2;ratioP2;P2;SDS_P1;SDS_P2;PMS_P1;PMS_P2;Temp;Humidity;BMP_temperature;BMP_pressure;BME280_temperature;BME280_humidity;BME280_pressure;Samples;Min_cycle;Max_cycle;Signal;HPM_P1;HPM_P2
2023/03/15 00:01:53;;;;;;;3.30;2.60;;;;;;;6.09;77.06;98624.15;131285;1252;107419;-77
2023/03/15 00:04:59;;;;;;;2.60;2.20;;;;;;;5.82;77.77;98646.91;131321;1250;107247;-77
2023/03/15 00:08:05;;;;;;;2.40;1.80;;;;;;;5.56;77.72;98657.55;131372;1252;108656;-78
2023/03/15 00:11:10;;;;;;;2.80;1.40;;;;;;;5.32;77.91;98663.61;131150;1252;107374;-76
2023/03/15 00:14:17;;;;;;;1.90;1.40;;;;;;;5.09;78.22;98681.29;131281;1252;106397;-77
2023/03/15 00:17:23;;;;;;;1.50;1.20;;;;;;;4.90;78.78;98696.98;131298;1263;107539;-77
2023/03/15 00:20:28;;;;;;;2.80;1.60;;;;;;;4.78;78.88;98706.45;131110;1252;107521;-78
2023/03/15 00:23:34;;;;;;;2.20;1.60;;;;;;;4.71;78.99;98727.71;131227;1253;107344;-78
2023/03/15 00:26:40;;;;;;;2.40;1.60;;;;;;;4.63;78.99;98738.88;131335;1250;107343;-77
2023/03/15 00:29:47;;;;;;;2.50;1.40;;;;;;;4.49;79.06;98755.24;131074;1250;107433;-78
2023/03/15 00:32:55;;;;;;;3.50;1.40;;;;;;;4.41;79.13;98750.60;131092;1250;106130;-75
2023/03/15 00:36:02;;;;;;;2.10;1.30;;;;;;;4.37;79.33;98760.46;131348;1252;107427;-75
2023/03/15 00:39:11;;;;;;;2.00;1.10;;;;;;;4.32;79.39;98763.61;131276;1252;107464;-77
2023/03/15 00:42:18;;;;;;;1.70;1.20;;;;;;;4.26;79.76;98785.30;131316;1252;108670;-77
2023/03/15 00:45:24;;;;;;;2.00;1.20;;;;;;;4.16;79.69;98784.67;131319;1255;107521;-77
2023/03/15 00:48:30;;;;;;;1.50;1.20;;;;;;;4.12;79.65;98795.30;131262;1250;108728;-78
2023/03/15 00:51:36;;;;;;;2.50;1.20;;;;;;;4.08;79.76;98806.73;131126;1255;107192;-76
2023/03/15 00:54:42;;;;;;;2.40;1.50;;;;;;;4.01;80.01;98819.38;131023;1252;107544;-77
2023/03/15 00:57:49;;;;;;;3.00;2.10;;;;;;;4.01;79.70;98833.46;131097;1252;106412;-75
2023/03/15 01:00:55;;;;;;;6.60;3.20;;;;;;;4.01;79.63;98853.69;131074;1253;107367;-77
2023/03/15 01:04:01;;;;;;;2.80;1.50;;;;;;;3.96;79.70;98860.39;131279;1252;107610;-77
2023/03/15 01:07:07;;;;;;;2.50;1.60;;;;;;;3.97;79.59;98865.67;131231;1254;107609;-77
2023/03/15 01:10:15;;;;;;;2.50;1.70;;;;;;;4.01;79.34;98868.10;131056;1255;107547;-77
2023/03/15 01:13:20;;;;;;;3.10;1.90;;;;;;;4.01;79.14;98874.80;131064;1252;106527;-77
2023/03/15 01:16:27;;;;;;;3.30;2.00;;;;;;;3.98;79.08;98893.57;131028;1254;107490;-77
2023/03/15 01:19:33;;;;;;;2.80;2.00;;;;;;;3.95;79.26;98905.46;131156;1263;107535;-77
2023/03/15 01:22:38;;;;;;;1.80;1.50;;;;;;;3.95;79.23;98923.09;131070;1253;107480;-75
2023/03/15 01:25:46;;;;;;;3.00;2.00;;;;;;;4.01;79.05;98929.04;131250;1250;107596;-77
2023/03/15 01:28:52;;;;;;;2.70;2.00;;;;;;;4.04;79.09;98948.95;131161;1256;107364;-77
2023/03/15 01:31:58;;;;;;;3.10;2.10;;;;;;;4.05;78.90;98962.05;131341;1250;107400;-76
2023/03/15 01:35:05;;;;;;;2.90;2.20;;;;;;;4.00;78.89;98967.83;131226;1255;108603;-78
2023/03/15 01:38:10;;;;;;;3.50;2.60;;;;;;;3.92;78.94;98971.66;131406;1250;107477;-76
2023/03/15 01:41:18;;;;;;;5.00;3.00;;;;;;;3.83;79.14;98983.08;131123;1256;107141;-76
2023/03/15 01:44:24;;;;;;;3.80;2.40;;;;;;;3.81;78.90;98979.41;131322;1252;106603;-76
2023/03/15 01:47:31;;;;;;;3.90;2.90;;;;;;;3.88;78.63;98984.23;131094;1260;107362;-77
2023/03/15 01:50:37;;;;;;;5.30;3.20;;;;;;;3.88;78.84;98992.66;131070;1252;106769;-78
2023/03/15 01:53:46;;;;;;;5.50;3.30;;;;;;;3.83;78.99;98997.00;131129;1257;107543;-76
2023/03/15 01:56:57;;;;;;;5.00;3.30;;;;;;;3.81;78.96;99013.23;131203;1250;107235;-77
2023/03/15 02:00:10;;;;;;;5.70;2.90;;;;;;;3.76;78.81;99016.60;131233;1256;107531;-77
2023/03/15 02:03:21;;;;;;;4.30;2.80;;;;;;;3.72;78.95;99026.14;131312;1252;107365;-77
2023/03/15 02:06:33;;;;;;;5.50;3.40;;;;;;;3.68;79.02;99021.98;131438;1252;107448;-76
2023/03/15 02:09:47;;;;;;;4.70;3.50;;;;;;;3.65;79.23;99034.50;131430;1252;107392;-78
2023/03/15 02:12:56;;;;;;;5.70;3.40;;;;;;;3.64;79.41;99038.14;131343;1252;107376;-76
2023/03/15 02:16:05;;;;;;;6.10;3.30;;;;;;;3.60;79.57;99050.07;131216;1250;230871;-76
2023/03/15 02:19:28;;;;;;;4.20;2.90;;;;;;;3.57;79.58;99066.01;131335;1261;107338;-76
2023/03/15 02:22:44;;;;;;;6.80;3.00;;;;;;;3.60;79.39;99073.52;131258;1262;107560;-79
2023/03/15 02:25:57;;;;;;;4.20;2.50;;;;;;;3.63;79.79;99088.50;131029;1255;107501;-76
2023/03/15 02:29:06;;;;;;;4.60;3.00;;;;;;;3.65;79.46;99090.08;131061;1252;107474;-77
2023/03/15 02:32:11;;;;;;;5.70;3.00;;;;;;;3.66;79.61;99104.59;131289;1252;107504;-75
2023/03/15 02:35:27;;;;;;;4.40;3.10;;;;;;;3.67;79.45;99108.69;131179;1256;107514;-77
2023/03/15 02:38:32;;;;;;;5.80;3.10;;;;;;;3.70;79.33;99117.80;131253;1256;108158;-77
2023/03/15 02:41:41;;;;;;;7.00;3.20;;;;;;;3.66;79.43;99136.40;131337;1252;107546;-76
2023/03/15 02:44:49;;;;;;;5.00;3.00;;;;;;;3.65;79.00;99150.63;131249;1252;107411;-75
2023/03/15 02:47:55;;;;;;;6.20;3.50;;;;;;;3.67;79.03;99163.29;131375;1250;107726;-76
2023/03/15 02:51:01;;;;;;;6.10;3.20;;;;;;;3.67;78.97;99163.37;131155;1255;107517;-78
2023/03/15 02:54:08;;;;;;;6.80;3.50;;;;;;;3.75;78.66;99164.60;131090;1252;107414;-77
2023/03/15 02:57:15;;;;;;;6.80;3.10;;;;;;;3.82;78.36;99172.61;131143;1255;107664;-77
2023/03/15 03:00:23;;;;;;;6.10;3.50;;;;;;;3.75;78.18;99176.63;131188;1252;107452;-76
2023/03/15 03:03:28;;;;;;;8.90;3.40;;;;;;;3.65;78.26;99184.68;131406;1250;107524;-77
2023/03/15 03:06:34;;;;;;;6.30;3.20;;;;;;;3.60;78.25;99188.52;131061;1252;107448;-77
2023/03/15 03:09:41;;;;;;;6.60;3.10;;;;;;;3.56;78.24;99187.30;131173;1254;108657;-77
2023/03/15 03:12:52;;;;;;;5.20;3.30;;;;;;;3.55;78.32;99191.91;131397;1249;107435;-78
2023/03/15 03:15:58;;;;;;;6.60;4.30;;;;;;;3.54;78.16;99198.51;131169;1252;107371;-77
2023/03/15 03:19:06;;;;;;;6.90;3.60;;;;;;;3.51;77.90;99201.70;131006;1250;107532;-76
2023/03/15 03:22:13;;;;;;;7.80;3.90;;;;;;;3.52;77.91;99207.92;131114;1250;107486;-76
2023/03/15 03:25:19;;;;;;;6.50;3.70;;;;;;;3.50;77.75;99218.19;130967;1255;107542;-77
2023/03/15 03:28:27;;;;;;;6.20;3.70;;;;;;;3.46;77.95;99219.80;131303;1253;107394;-76
2023/03/15 03:31:33;;;;;;;6.90;3.80;;;;;;;3.40;77.88;99216.10;131362;1255;107468;-76
2023/03/15 03:34:40;;;;;;;7.50;3.90;;;;;;;3.41;77.88;99206.27;131324;1252;108806;-77
2023/03/15 03:37:46;;;;;;;9.10;4.90;;;;;;;3.40;77.77;99214.52;131273;1253;107463;-77
2023/03/15 03:40:56;;;;;;;9.40;4.70;;;;;;;3.37;77.30;99217.75;131261;1253;106427;-77
2023/03/15 03:44:02;;;;;;;10.80;5.80;;;;;;;3.32;76.98;99222.70;131267;1254;107487;-77
2023/03/15 03:47:09;;;;;;;11.30;6.00;;;;;;;3.32;77.29;99233.09;131256;1253;107431;-75
2023/03/15 03:50:14;;;;;;;9.40;5.20;;;;;;;3.30;76.20;99241.69;131015;1256;107568;-77
2023/03/15 03:53:20;;;;;;;10.80;5.30;;;;;;;3.21;76.31;99239.19;131095;1254;107387;-77
2023/03/15 03:56:26;;;;;;;14.30;5.50;;;;;;;3.15;76.73;99244.39;131122;1255;107372;-78
2023/03/15 03:59:33;;;;;;;11.60;5.90;;;;;;;3.15;76.41;99253.83;131163;1250;107444;-78
2023/03/15 04:02:42;;;;;;;10.50;5.10;;;;;;;3.15;76.49;99265.79;131522;1251;107404;-77
2023/03/15 04:05:51;;;;;;;10.50;6.20;;;;;;;3.20;76.83;99274.36;131161;1250;106781;-78
2023/03/15 04:09:01;;;;;;;14.40;7.80;;;;;;;3.25;76.76;99280.27;131297;1252;107376;-78
2023/03/15 04:12:12;;;;;;;10.50;6.90;;;;;;;3.17;76.74;99284.28;131300;1253;107566;-79
2023/03/15 04:15:21;;;;;;;14.50;8.10;;;;;;;3.11;76.97;99298.14;131093;1253;107486;-78
2023/03/15 04:18:27;;;;;;;17.70;9.30;;;;;;;3.09;76.80;99305.81;131017;1255;107639;-77
2023/03/15 04:21:34;;;;;;;12.50;6.70;;;;;;;3.14;76.72;99310.04;131115;1252;107550;-79
2023/03/15 04:25:12;;;;;;;15.70;8.10;;;;;;;3.13;75.92;99310.31;130956;1258;108710;-77
2023/03/15 04:28:44;;;;;;;12.80;6.40;;;;;;;3.07;76.36;99316.38;131328;1250;107501;-78
2023/03/15 04:32:23;;;;;;;16.70;7.20;;;;;;;3.07;76.44;99329.58;131566;1248;105703;-79
2023/03/15 04:35:47;;;;;;;15.40;8.20;;;;;;;3.08;76.54;99333.36;131600;1250;107410;-78
2023/03/15 04:39:13;;;;;;;70.70;30.20;;;;;;;3.10;76.50;99349.52;132382;1250;107785;-80
2023/03/15 04:42:48;;;;;;;14.50;7.70;;;;;;;3.05;76.29;99349.29;131000;1255;107510;-79
2023/03/15 04:46:08;;;;;;;13.80;7.80;;;;;;;2.99;76.61;99349.08;131043;1252;107529;-79
2023/03/15 04:49:35;;;;;;;17.60;9.60;;;;;;;2.99;76.82;99349.19;131032;1254;107337;-78
2023/03/15 04:53:07;;;;;;;15.00;7.10;;;;;;;3.04;76.85;99354.59;131152;1252;107440;-80
2023/03/15 04:56:24;;;;;;;20.70;12.70;;;;;;;3.01;76.94;99361.13;131271;1253;107541;-78
2023/03/15 04:59:53;;;;;;;13.30;6.70;;;;;;;2.99;76.93;99360.30;131369;1252;107245;-78
2023/03/15 05:03:20;;;;;;;11.20;6.30;;;;;;;2.99;77.06;99359.23;131396;1252;106539;-77
2023/03/15 05:06:37;;;;;;;9.00;5.20;;;;;;;3.10;77.07;99363.24;131523;1252;107519;-77
2023/03/15 05:09:49;;;;;;;19.50;8.60;;;;;;;3.13;76.86;99368.27;131107;1255;107976;-80
2023/03/15 05:13:13;;;;;;;21.70;8.80;;;;;;;3.15;76.86;99374.05;131118;1262;106682;-79
2023/03/15 05:16:54;;;;;;;129.80;35.50;;;;;;;3.14;76.91;99384.68;130943;1253;107556;-78
2023/03/15 05:20:30;;;;;;;181.50;49.80;;;;;;;3.20;77.07;99385.98;131068;1259;107487;-78
2023/03/15 05:23:52;;;;;;;39.70;13.30;;;;;;;3.10;76.77;99385.34;131237;1253;107524;-78
2023/03/15 05:27:37;;;;;;;134.80;40.30;;;;;;;3.06;77.07;99389.58;130580;1260;107629;-79
2023/03/15 05:31:03;;;;;;;246.60;56.90;;;;;;;3.05;77.12;99399.14;130507;1259;107371;-79
2023/03/15 05:34:12;;;;;;;541.10;142.00;;;;;;;3.03;77.11;99403.39;131150;1254;107511;-79
2023/03/15 05:37:37;;;;;;;96.10;26.20;;;;;;;3.03;76.97;99411.06;131106;1253;107431;-78
2023/03/15 05:41:21;;;;;;;448.20;114.30;;;;;;;3.04;77.15;99420.52;130530;1259;107238;-79
2023/03/15 05:44:55;;;;;;;577.80;155.50;;;;;;;3.12;76.94;99427.71;130654;1262;107483;-79
2023/03/15 05:48:16;;;;;;;540.90;157.00;;;;;;;3.17;76.98;99435.93;131173;1252;107494;-78
2023/03/15 05:51:36;;;;;;;412.40;125.30;;;;;;;3.29;76.92;99432.33;131094;1252;107437;-79
2023/03/15 05:54:55;;;;;;;28.80;10.20;;;;;;;3.34;76.44;99430.14;131074;1250;107674;-79
2023/03/15 05:58:23;;;;;;;225.70;84.20;;;;;;;3.21;76.38;99432.83;131116;1253;107905;-80
2023/03/15 06:01:48;;;;;;;160.30;57.40;;;;;;;3.11;76.54;99441.20;131024;1256;107206;-79
2023/03/15 06:05:04;;;;;;;22.50;11.20;;;;;;;3.17;76.69;99454.40;131004;1253;107495;-80
2023/03/15 06:08:10;;;;;;;19.40;9.10;;;;;;;3.16;76.56;99462.75;131052;1261;107520;-80
2023/03/15 06:11:18;;;;;;;56.30;29.20;;;;;;;3.18;76.17;99468.45;131093;1253;107936;-77
2023/03/15 06:14:24;;;;;;;16.70;10.10;;;;;;;3.21;76.30;99475.91;131328;1261;107469;-79
2023/03/15 06:17:32;;;;;;;14.70;7.90;;;;;;;3.20;76.11;99483.70;131012;1252;107423;-78
2023/03/15 06:20:38;;;;;;;11.00;6.40;;;;;;;3.23;76.24;99480.64;131015;1261;107502;-78
2023/03/15 06:23:48;;;;;;;14.70;7.80;;;;;;;3.29;75.86;99483.82;131354;1254;107400;-78
2023/03/15 06:26:55;;;;;;;9.60;4.80;;;;;;;3.12;75.23;99496.80;131225;1265;107265;-78
2023/03/15 06:30:01;;;;;;;12.50;6.10;;;;;;;3.05;75.82;99508.48;131091;1255;107560;-79
2023/03/15 06:33:07;;;;;;;19.30;10.50;;;;;;;3.00;75.93;99512.35;131150;1253;107457;-79
2023/03/15 06:36:15;;;;;;;11.00;7.60;;;;;;;2.97;76.10;99509.77;131251;1254;108580;-79
2023/03/15 06:39:22;;;;;;;13.70;5.70;;;;;;;2.98;75.98;99514.65;131043;1252;107388;-80
2023/03/15 06:42:28;;;;;;;15.20;9.50;;;;;;;3.05;76.17;99517.55;131253;1252;107419;-80
2023/03/15 06:45:34;;;;;;;14.30;5.60;;;;;;;3.12;75.50;99521.59;131002;1252;107420;-78
2023/03/15 06:48:40;;;;;;;17.90;8.60;;;;;;;3.09;75.48;99517.92;131040;1262;107437;-79
2023/03/15 06:51:47;;;;;;;10.00;4.70;;;;;;;3.15;75.60;99528.41;131018;1253;107410;-78
2023/03/15 06:54:53;;;;;;;12.10;4.60;;;;;;;3.19;74.94;99529.84;131052;1256;107559;-79
2023/03/15 06:57:59;;;;;;;13.20;7.50;;;;;;;3.08;74.34;99530.13;131063;1267;107135;-79
2023/03/15 07:01:05;;;;;;;13.80;7.50;;;;;;;3.07;74.73;99538.83;131256;1253;107547;-79
2023/03/15 07:04:11;;;;;;;11.50;6.40;;;;;;;3.22;74.98;99548.39;131250;1254;108670;-81
2023/03/15 07:07:17;;;;;;;7.80;3.40;;;;;;;3.32;74.43;99551.45;131045;1253;107499;-78
2023/03/15 07:10:22;;;;;;;14.70;8.60;;;;;;;3.40;73.92;99552.17;131283;1253;107524;-78
2023/03/15 07:13:28;;;;;;;13.40;7.50;;;;;;;3.39;73.06;99557.23;131337;1259;107579;-78
2023/03/15 07:16:34;;;;;;;10.90;5.00;;;;;;;3.42;73.44;99555.04;131045;1252;107555;-79
2023/03/15 07:19:40;;;;;;;11.50;5.50;;;;;;;3.47;73.24;99560.98;131051;1257;107513;-79
2023/03/15 07:22:45;;;;;;;10.90;4.60;;;;;;;3.42;72.62;99567.55;131209;1253;107540;-79
2023/03/15 07:25:51;;;;;;;11.20;4.70;;;;;;;3.36;72.70;99574.67;131145;1253;107638;-79
2023/03/15 07:28:56;;;;;;;10.10;4.70;;;;;;;3.31;72.79;99581.23;131057;1253;107553;-80
2023/03/15 07:32:02;;;;;;;8.70;3.60;;;;;;;3.25;72.70;99589.08;131276;1261;107567;-81
2023/03/15 07:35:09;;;;;;;11.70;4.80;;;;;;;3.19;73.02;99599.76;131150;1252;108749;-80
2023/03/15 07:38:14;;;;;;;8.20;4.10;;;;;;;3.23;73.49;99598.05;131108;1253;107502;-79
2023/03/15 07:41:20;;;;;;;9.60;4.20;;;;;;;3.31;73.23;99602.84;131051;1260;106509;-79
2023/03/15 07:44:35;;;;;;;8.80;4.40;;;;;;;3.35;72.78;99617.83;131342;1254;107331;-80
2023/03/15 07:47:40;;;;;;;9.50;5.00;;;;;;;3.37;73.04;99618.90;131349;1253;107238;-79
2023/03/15 07:50:46;;;;;;;11.20;4.40;;;;;;;3.38;72.91;99628.46;131105;1253;107525;-78
2023/03/15 07:53:52;;;;;;;33.50;13.60;;;;;;;3.33;72.92;99649.24;131179;1253;106512;-78
2023/03/15 07:56:58;;;;;;;21.30;12.60;;;;;;;3.33;73.45;99658.41;131331;1254;107504;-78
2023/03/15 08:00:04;;;;;;;13.40;6.00;;;;;;;3.43;73.51;99663.94;131362;1253;107526;-78
2023/03/15 08:03:18;;;;;;;14.70;7.10;;;;;;;3.59;73.48;99670.23;131294;1260;108679;-79
2023/03/15 08:06:24;;;;;;;10.40;5.60;;;;;;;3.88;72.68;99677.47;131244;1253;107508;-79
2023/03/15 08:09:31;;;;;;;12.50;4.40;;;;;;;3.89;70.55;99690.33;131177;1256;107525;-79
2023/03/15 08:12:39;;;;;;;14.20;6.50;;;;;;;3.78;70.98;99695.86;131055;1254;107949;-79
2023/03/15 08:15:46;;;;;;;12.00;6.70;;;;;;;3.72;70.53;99706.86;131051;1253;107276;-80
2023/03/15 08:18:52;;;;;;;11.40;5.20;;;;;;;3.70;71.13;99708.46;131054;1254;107491;-80
2023/03/15 08:21:58;;;;;;;17.60;8.30;;;;;;;3.62;71.18;99710.78;131087;1254;106543;-80
2023/03/15 08:25:04;;;;;;;11.60;5.70;;;;;;;3.61;71.84;99717.61;131128;1253;107420;-79
2023/03/15 08:28:10;;;;;;;12.10;4.40;;;;;;;3.61;71.51;99722.48;131156;1254;107555;-79
2023/03/15 08:31:15;;;;;;;9.50;5.00;;;;;;;3.61;71.45;99726.95;130999;1251;107353;-79
2023/03/15 08:34:21;;;;;;;13.70;6.80;;;;;;;3.60;71.81;99726.98;131032;1253;107589;-78
2023/03/15 08:37:27;;;;;;;13.00;5.50;;;;;;;3.64;71.23;99728.23;131024;1253;107481;-79
2023/03/15 08:40:32;;;;;;;12.80;5.10;;;;;;;3.59;70.82;99730.39;131136;1257;107257;-79
2023/03/15 08:43:39;;;;;;;10.20;4.70;;;;;;;3.61;71.06;99736.55;131086;1254;107434;-79
2023/03/15 08:46:45;;;;;;;9.30;4.80;;;;;;;3.68;70.65;99744.84;131264;1254;107521;-79
2023/03/15 08:49:52;;;;;;;13.50;6.40;;;;;;;3.71;70.61;99742.99;131060;1251;107445;-79
2023/03/15 08:52:58;;;;;;;12.60;6.60;;;;;;;3.74;69.96;99742.58;131135;1261;107386;-79
2023/03/15 08:56:03;;;;;;;14.10;6.10;;;;;;;3.80;70.21;99741.02;131122;1254;106680;-80
2023/03/15 08:59:09;;;;;;;15.30;6.30;;;;;;;3.98;69.86;99748.64;131027;1253;107489;-80
2023/03/15 09:02:15;;;;;;;8.60;5.10;;;;;;;4.10;69.44;99747.05;131068;1254;105715;-79
2023/03/15 09:05:22;;;;;;;14.80;8.00;;;;;;;4.20;69.85;99743.46;131029;1254;105420;-80
2023/03/15 09:08:28;;;;;;;11.40;5.40;;;;;;;4.50;69.60;99756.88;131085;1251;107800;-80
2023/03/15 09:11:34;;;;;;;12.60;7.10;;;;;;;4.60;69.35;99770.48;131124;1254;107561;-78
2023/03/15 09:14:40;;;;;;;14.20;5.70;;;;;;;4.71;69.77;99771.88;131240;1251;107553;-82
2023/03/15 09:17:48;;;;;;;13.70;5.80;;;;;;;4.82;68.86;99776.27;131089;1251;107615;-79
2023/03/15 09:20:54;;;;;;;12.70;5.20;;;;;;;4.84;68.91;99773.59;131058;1252;107512;-78
2023/03/15 09:23:59;;;;;;;14.30;6.10;;;;;;;4.87;68.31;99773.73;131092;1254;107371;-81
2023/03/15 09:27:05;;;;;;;12.50;4.90;;;;;;;4.89;69.16;99782.55;131031;1251;106471;-79
2023/03/15 09:30:13;;;;;;;9.60;4.90;;;;;;;4.88;68.37;99788.09;131015;1253;107511;-78
2023/03/15 09:33:21;;;;;;;10.20;5.60;;;;;;;5.00;69.06;99787.83;131094;1252;107524;-79
2023/03/15 09:36:27;;;;;;;14.20;7.50;;;;;;;5.11;68.16;99784.80;131188;1255;107250;-80
2023/03/15 09:39:33;;;;;;;14.00;6.10;;;;;;;5.12;67.84;99784.68;131077;1251;107544;-80
2023/03/15 09:42:52;;;;;;;12.60;6.80;;;;;;;5.01;66.66;99794.05;131121;1254;107351;-77
2023/03/15 09:46:10;;;;;;;18.30;9.70;;;;;;;5.03;68.79;99790.90;131452;1253;107445;-78
2023/03/15 09:49:29;;;;;;;14.80;5.40;;;;;;;5.28;68.31;99788.81;131381;1261;107960;-81
2023/03/15 09:52:42;;;;;;;11.20;6.00;;;;;;;5.49;68.21;99782.94;131129;1254;107527;-80
2023/03/15 09:55:51;;;;;;;9.70;5.30;;;;;;;5.76;67.23;99779.23;131167;1251;107593;-81
2023/03/15 09:59:00;;;;;;;9.20;4.40;;;;;;;5.86;66.92;99778.31;131314;1251;107538;-80
2023/03/15 10:02:18;;;;;;;38.00;20.20;;;;;;;6.03;67.38;99776.13;131103;1251;107532;-79
2023/03/15 10:05:28;;;;;;;30.80;16.90;;;;;;;6.18;65.80;99786.34;131302;1253;107190;-80
2023/03/15 10:08:34;;;;;;;11.10;5.70;;;;;;;6.17;65.11;99787.50;131201;1253;106400;-80
2023/03/15 10:11:47;;;;;;;15.50;7.30;;;;;;;5.94;65.40;99785.92;131054;1251;107399;-80
2023/03/15 10:15:21;;;;;;;21.40;8.80;;;;;;;6.04;67.72;99780.45;131087;1251;107214;-80
2023/03/15 10:18:44;;;;;;;11.00;4.90;;;;;;;6.25;64.78;99784.14;131153;1253;107509;-80
2023/03/15 10:21:57;;;;;;;14.60;7.60;;;;;;;6.22;64.97;99779.98;130990;1253;107566;-80
2023/03/15 10:25:11;;;;;;;8.40;4.40;;;;;;;6.31;63.47;99793.13;131058;1251;107478;-79
2023/03/15 10:28:27;;;;;;;13.80;5.50;;;;;;;6.29;64.58;99798.92;131326;1254;107521;-80
2023/03/15 10:31:39;;;;;;;9.90;4.60;;;;;;;6.45;63.80;99797.48;131329;1263;106724;-78
2023/03/15 10:34:47;;;;;;;13.40;5.60;;;;;;;6.40;64.39;99792.99;131374;1251;106536;-78
2023/03/15 10:37:53;;;;;;;15.10;7.50;;;;;;;6.56;63.85;99799.85;131315;1254;107625;-78
2023/03/15 10:41:00;;;;;;;10.60;5.20;;;;;;;6.61;63.26;99796.02;131433;1252;107595;-79
2023/03/15 10:44:10;;;;;;;11.50;4.30;;;;;;;6.61;61.98;99796.05;131331;1251;107534;-80
2023/03/15 10:47:21;;;;;;;11.60;4.30;;;;;;;6.34;61.27;99802.21;131293;1254;107605;-80
2023/03/15 10:50:30;;;;;;;11.50;4.50;;;;;;;6.16;61.76;99802.05;131301;1254;107490;-79
2023/03/15 10:53:36;;;;;;;8.00;4.00;;;;;;;6.08;61.20;99802.00;131381;1251;107402;-77
2023/03/15 10:56:48;;;;;;;10.70;4.90;;;;;;;6.14;61.75;99799.71;131326;1253;107268;-79
2023/03/15 11:00:05;;;;;;;10.60;4.40;;;;;;;6.31;62.43;99802.80;131093;1254;107522;-80
2023/03/15 11:03:19;;;;;;;11.00;4.30;;;;;;;6.41;62.33;99795.78;131221;1254;107345;-80
2023/03/15 11:06:28;;;;;;;8.50;4.10;;;;;;;6.46;63.63;99787.54;131112;1255;107522;-79
2023/03/15 11:09:41;;;;;;;8.60;4.30;;;;;;;6.63;61.65;99800.63;131335;1251;107718;-78
2023/03/15 11:12:47;;;;;;;11.40;5.40;;;;;;;6.69;62.55;99792.91;131412;1252;107596;-79
2023/03/15 11:16:02;;;;;;;10.20;4.20;;;;;;;6.76;61.58;99792.29;131211;1261;107227;-80
2023/03/15 11:19:16;;;;;;;9.00;4.10;;;;;;;6.82;61.71;99788.68;131195;1253;107530;-79
2023/03/15 11:22:21;;;;;;;8.00;4.10;;;;;;;6.80;60.00;99785.54;131209;1254;107550;-81
2023/03/15 11:25:32;;;;;;;11.70;4.90;;;;;;;6.58;58.43;99783.26;131080;1261;107461;-80
2023/03/15 11:28:43;;;;;;;8.30;4.20;;;;;;;6.49;60.11;99775.63;131155;1251;107204;-80
2023/03/15 11:31:51;;;;;;;9.90;4.50;;;;;;;6.61;61.88;99779.13;131185;1251;105720;-79
2023/03/15 11:35:04;;;;;;;10.00;4.70;;;;;;;6.65;60.90;99779.92;131083;1251;107561;-81
2023/03/15 11:38:16;;;;;;;9.90;4.20;;;;;;;6.80;61.26;99779.90;131094;1251;107401;-80
2023/03/15 11:41:34;;;;;;;10.20;3.90;;;;;;;6.85;60.74;99776.34;131001;1252;107546;-81
2023/03/15 11:44:45;;;;;;;9.50;4.40;;;;;;;6.94;60.64;99781.95;131177;1252;107504;-80
2023/03/15 11:47:54;;;;;;;10.70;4.60;;;;;;;6.84;58.20;99788.38;131085;1254;108690;-79
2023/03/15 11:51:01;;;;;;;11.40;4.00;;;;;;;6.66;59.81;99784.64;131241;1252;107534;-81
2023/03/15 11:54:14;;;;;;;11.00;4.60;;;;;;;6.45;58.52;99792.53;131252;1251;107169;-78
2023/03/15 11:57:39;;;;;;;10.80;4.50;;;;;;;6.32;58.89;99789.86;131149;1250;107251;-79
2023/03/15 12:00:53;;;;;;;9.40;4.70;;;;;;;6.10;58.11;99794.27;131108;1253;107554;-81
2023/03/15 12:04:28;;;;;;;8.90;4.20;;;;;;;6.03;58.71;99800.55;130970;1250;107505;-80
2023/03/15 12:07:58;;;;;;;12.40;3.80;;;;;;;5.98;57.56;99800.38;131169;1251;108263;-80
2023/03/15 12:11:12;;;;;;;7.50;3.50;;;;;;;5.97;57.57;99805.32;131191;1253;107541;-82
2023/03/15 12:14:33;;;;;;;12.70;5.10;;;;;;;6.04;58.36;99804.68;131158;1253;106543;-80
2023/03/15 12:17:45;;;;;;;8.80;3.20;;;;;;;6.19;58.22;99810.41;131049;1254;107746;-82
2023/03/15 12:21:07;;;;;;;7.10;3.00;;;;;;;6.21;56.86;99811.32;131066;1253;107521;-81
2023/03/15 12:24:22;;;;;;;8.10;2.80;;;;;;;6.20;56.99;99813.71;131188;1251;107364;-80
2023/03/15 12:27:29;;;;;;;6.20;3.00;;;;;;;6.38;57.05;99809.61;131263;1253;107987;-80
2023/03/15 12:30:39;;;;;;;7.90;3.10;;;;;;;6.55;57.43;99813.09;131080;1251;107808;-79
2023/03/15 12:33:52;;;;;;;12.20;4.60;;;;;;;6.65;56.76;99818.46;131425;1264;109332;-81
2023/03/15 12:37:02;;;;;;;8.40;4.30;;;;;;;6.58;56.53;99817.60;131335;1250;107529;-80
2023/03/15 12:40:37;;;;;;;12.40;4.60;;;;;;;6.54;57.61;99818.92;131394;1250;107473;-80
2023/03/15 12:43:45;;;;;;;14.40;6.10;;;;;;;6.60;57.78;99815.61;131137;1252;107540;-80
2023/03/15 12:46:58;;;;;;;6.90;3.70;;;;;;;6.74;57.74;99818.27;131102;1253;107627;-80
2023/03/15 12:50:38;;;;;;;9.70;5.20;;;;;;;6.63;55.69;99827.17;131206;1252;108804;-79
2023/03/15 12:53:50;;;;;;;9.40;4.20;;;;;;;6.54;57.66;99830.84;131385;1250;106245;-79
2023/03/15 12:56:59;;;;;;;8.80;4.00;;;;;;;6.56;56.38;99834.23;131186;1251;107361;-80
2023/03/15 13:00:12;;;;;;;11.40;4.90;;;;;;;6.43;56.82;99843.13;131252;1252;107539;-80
2023/03/15 13:03:22;;;;;;;9.30;5.00;;;;;;;6.40;56.74;99845.86;131102;1254;107421;-81
2023/03/15 13:06:40;;;;;;;7.10;4.20;;;;;;;6.34;57.38;99843.20;131272;1250;107503;-80
2023/03/15 13:10:16;;;;;;;18.50;10.40;;;;;;;6.29;57.14;99851.22;131095;1253;107475;-81
2023/03/15 13:13:53;;;;;;;9.40;4.60;;;;;;;6.40;57.59;99850.98;130867;1252;107684;-81
2023/03/15 13:17:06;;;;;;;8.50;4.60;;;;;;;6.51;56.70;99852.11;131227;1252;107882;-80
2023/03/15 13:20:26;;;;;;;5.60;3.20;;;;;;;6.74;57.52;99859.41;131496;1254;107506;-80
2023/03/15 13:23:37;;;;;;;12.60;5.00;;;;;;;6.85;57.52;99861.40;131066;1252;107522;-80
2023/03/15 13:26:53;;;;;;;17.50;6.50;;;;;;;6.93;56.35;99867.05;131153;1252;107523;-81
2023/03/15 13:29:59;;;;;;;16.80;5.90;;;;;;;6.95;56.21;99871.17;131058;1253;107527;-81
2023/03/15 13:33:14;;;;;;;7.20;3.00;;;;;;;7.10;56.26;99872.83;131011;1250;107497;-81
2023/03/15 13:36:22;;;;;;;5.30;2.60;;;;;;;7.06;55.10;99876.34;131226;1250;107400;-77
2023/03/15 13:39:29;;;;;;;7.70;3.60;;;;;;;6.89;54.63;99886.53;131318;1249;107383;-80
2023/03/15 13:42:40;;;;;;;7.60;3.60;;;;;;;6.79;56.21;99890.27;131172;1252;107683;-79
2023/03/15 13:45:46;;;;;;;7.40;3.50;;;;;;;6.75;54.50;99896.63;131256;1253;107533;-79
2023/03/15 13:48:54;;;;;;;8.40;4.30;;;;;;;6.73;56.15;99894.36;131123;1252;107527;-80
2023/03/15 13:52:02;;;;;;;9.60;5.00;;;;;;;6.87;56.31;99897.87;131252;1252;107661;-80
2023/03/15 13:55:12;;;;;;;14.00;9.90;;;;;;;6.95;55.67;99902.27;131259;1250;107187;-80
2023/03/15 13:58:18;;;;;;;9.70;4.20;;;;;;;6.92;54.67;99906.43;131112;1253;106821;-81
2023/03/15 14:01:25;;;;;;;9.20;3.40;;;;;;;6.77;55.29;99901.98;131061;1250;109122;-80
2023/03/15 14:04:35;;;;;;;9.00;3.90;;;;;;;6.69;55.41;99903.67;131051;1251;107515;-80
2023/03/15 14:07:43;;;;;;;10.80;4.70;;;;;;;6.65;56.22;99901.88;131508;1253;108629;-81
2023/03/15 14:11:04;;;;;;;12.30;6.20;;;;;;;6.67;55.40;99913.05;131180;1252;106528;-81
2023/03/15 14:14:24;;;;;;;11.40;4.70;;;;;;;6.62;55.80;99918.65;131213;1254;106696;-79
2023/03/15 14:17:32;;;;;;;7.70;3.80;;;;;;;6.55;55.65;99915.01;131067;1252;135515;-79
2023/03/15 14:20:40;;;;;;;7.20;4.00;;;;;;;6.62;55.87;99913.70;131310;1251;108710;-80
2023/03/15 14:23:48;;;;;;;7.50;4.50;;;;;;;6.67;55.16;99916.56;131169;1252;108650;-80
2023/03/15 14:26:57;;;;;;;10.30;5.00;;;;;;;6.67;55.40;99913.39;131080;1252;107526;-80
2023/03/15 14:30:05;;;;;;;9.20;4.60;;;;;;;6.57;55.20;99912.39;131057;1263;107506;-77
2023/03/15 14:33:27;;;;;;;10.80;5.20;;;;;;;6.46;56.48;99911.19;131129;1253;108708;-80
2023/03/15 14:36:40;;;;;;;13.40;5.30;;;;;;;6.44;56.36;99921.98;131080;1250;107502;-81
2023/03/15 14:39:46;;;;;;;10.40;4.80;;;;;;;6.48;56.59;99924.80;131121;1252;108675;-82
2023/03/15 14:42:51;;;;;;;10.30;4.80;;;;;;;6.45;55.43;99921.54;131026;1252;107588;-80